Ada, Michigan
Current Conditions -  °F | °C
As of 8:53 AM on Thursday 27 Nov 2014 (Local Time) from KGRR Reporting Station
Light Snow Light Snow  
Wind Chill: 22°   Ceiling: 4500
Heat Index: 27°   Visibility: 2mi
Dew Point: 24°   Wind: 5mph
Humidity: 89%   Direction: 280°W
Pressure: 30.18"   Gusts: NA
Location:  42.95°N, 85.49°W
Report Text: KGRR 271353Z 28004KT 2SM -SN BR BKN045 BKN055 OVC095 M03/M04 A3018 RMK AO2 VIS 1 1/4 RWY 8R SLP229 P0000 T10281044
Loading
Personal Weather Stations






























Interactive Weather Map New forecast layout! Learn more

10-Day Weather Forecast

Advertisements
Track Severe Weather on mobile